createdAt,value
2018-12-24T00:01:39.359Z,6.36
2018-12-24T00:04:09.233Z,6.35
2018-12-24T00:06:39.051Z,6.35
2018-12-24T00:09:08.965Z,6.36
2018-12-24T00:11:38.823Z,6.28
2018-12-24T00:14:08.777Z,6.18
2018-12-24T00:16:38.683Z,6.14
2018-12-24T00:19:08.541Z,6.08
2018-12-24T00:21:38.365Z,6.01
2018-12-24T00:24:08.270Z,5.93
2018-12-24T00:26:38.219Z,5.92
2018-12-24T00:29:08.066Z,5.96
2018-12-24T00:31:37.883Z,5.85
2018-12-24T00:34:07.842Z,5.84
2018-12-24T00:36:37.744Z,5.85
2018-12-24T00:39:26.474Z,5.79
2018-12-24T00:41:56.278Z,5.80
2018-12-24T00:44:45.089Z,5.67
2018-12-24T00:47:15.024Z,5.56
2018-12-24T00:49:44.855Z,5.46
2018-12-24T00:52:14.770Z,5.47
2018-12-24T00:54:44.620Z,5.49
2018-12-24T00:57:14.459Z,5.59
2018-12-24T00:59:44.373Z,5.62
2018-12-24T01:02:14.322Z,5.59
2018-12-24T01:04:44.130Z,5.56
2018-12-24T01:07:13.939Z,5.49
2018-12-24T01:09:43.890Z,5.46
2018-12-24T01:12:13.851Z,5.47
2018-12-24T01:14:43.723Z,5.54
2018-12-24T01:17:13.565Z,5.59
2018-12-24T01:19:43.513Z,5.61
2018-12-24T01:22:13.464Z,5.70
2018-12-24T01:24:43.319Z,5.70
2018-12-24T01:27:13.137Z,5.76
2018-12-24T01:29:43.084Z,5.80
2018-12-24T01:32:12.998Z,5.93
2018-12-24T01:34:42.817Z,6.01
2018-12-24T01:37:12.646Z,6.03
2018-12-24T01:39:42.563Z,6.06
2018-12-24T01:42:12.510Z,6.28
2018-12-24T01:44:42.405Z,6.31
2018-12-24T01:47:12.270Z,6.33
2018-12-24T01:49:42.184Z,6.44
2018-12-24T01:52:12.142Z,6.51
2018-12-24T01:54:42.001Z,6.54
2018-12-24T01:57:11.794Z,6.61
2018-12-24T01:59:41.749Z,6.58
2018-12-24T02:02:11.704Z,6.67
2018-12-24T02:04:41.564Z,6.69
2018-12-24T02:07:11.416Z,6.69
2018-12-24T02:09:41.386Z,6.72
2018-12-24T02:12:11.192Z,6.74
2018-12-24T02:14:41.182Z,6.74
2018-12-24T02:17:11.092Z,6.76
2018-12-24T02:20:01.219Z,6.81
2018-12-24T02:22:31.074Z,6.85
2018-12-24T02:25:00.979Z,6.82
2018-12-24T02:27:30.936Z,6.79
2018-12-24T02:30:00.764Z,6.78
2018-12-24T02:32:30.628Z,6.75
2018-12-24T02:35:00.537Z,6.73
2018-12-24T02:37:30.492Z,6.78
2018-12-24T02:40:00.340Z,6.54
2018-12-24T02:42:30.156Z,6.40
2018-12-24T02:45:00.252Z,6.34
2018-12-24T02:47:30.087Z,6.34
2018-12-24T02:49:59.896Z,6.30
2018-12-24T02:52:29.845Z,6.24
2018-12-24T02:54:59.657Z,6.20
2018-12-24T02:57:29.477Z,6.13
2018-12-24T02:59:59.393Z,6.16
2018-12-24T03:02:29.297Z,6.21
2018-12-24T03:04:59.147Z,6.09
2018-12-24T03:07:29.002Z,6.23
2018-12-24T03:09:58.919Z,6.15
2018-12-24T03:12:28.878Z,6.12
2018-12-24T03:14:58.742Z,6.02
2018-12-24T03:17:28.559Z,5.96
2018-12-24T03:19:58.507Z,5.88
2018-12-24T03:22:28.475Z,5.85
2018-12-24T03:25:17.154Z,5.83
2018-12-24T03:27:46.978Z,5.70
2018-12-24T03:30:16.926Z,5.67
2018-12-24T03:32:46.736Z,5.78
2018-12-24T03:35:16.651Z,5.87
2018-12-24T03:37:46.580Z,5.75
2018-12-24T03:40:16.402Z,5.79
2018-12-24T03:42:46.270Z,5.66
2018-12-24T03:45:16.197Z,5.71
2018-12-24T03:47:46.294Z,5.67
2018-12-24T03:50:16.075Z,5.60
2018-12-24T03:52:46.085Z,5.64
2018-12-24T03:55:16.020Z,5.61
2018-12-24T03:57:45.921Z,5.66
2018-12-24T04:00:15.778Z,5.64
2018-12-24T04:02:45.587Z,5.74
2018-12-24T04:05:15.543Z,5.77
2018-12-24T04:07:45.482Z,5.71
2018-12-24T04:10:15.287Z,5.62
2018-12-24T04:12:45.323Z,5.75
2018-12-24T04:15:15.167Z,5.71
2018-12-24T04:17:44.980Z,5.73
2018-12-24T04:20:14.925Z,5.70
2018-12-24T04:22:44.855Z,5.65
2018-12-24T04:25:14.681Z,5.57
2018-12-24T04:27:44.543Z,5.54
2018-12-24T04:30:14.461Z,5.57
2018-12-24T04:32:44.415Z,5.56
2018-12-24T04:35:14.227Z,5.62
2018-12-24T04:37:44.104Z,5.52
2018-12-24T04:40:14.002Z,5.70
2018-12-24T04:42:43.929Z,5.70
2018-12-24T04:45:13.790Z,5.73
2018-12-24T04:47:43.646Z,5.71
2018-12-24T04:50:13.555Z,5.58
2018-12-24T04:52:43.356Z,5.66
2018-12-24T04:55:13.318Z,5.63
2018-12-24T04:57:43.235Z,5.72
2018-12-24T05:00:13.034Z,5.65
2018-12-24T05:02:42.886Z,5.56
2018-12-24T05:05:12.848Z,5.37
2018-12-24T05:07:42.752Z,5.54
2018-12-24T05:10:12.629Z,5.54
2018-12-24T05:12:42.463Z,5.35
2018-12-24T05:15:12.372Z,5.48
2018-12-24T05:17:42.338Z,5.47
2018-12-24T05:20:12.162Z,5.45
2018-12-24T05:22:42.025Z,5.54
2018-12-24T05:25:11.944Z,5.50
2018-12-24T05:27:41.912Z,5.41
2018-12-24T05:30:11.750Z,5.38
2018-12-24T05:32:41.706Z,5.33
2018-12-24T05:35:11.522Z,5.25
2018-12-24T05:37:41.431Z,5.22
2018-12-24T05:40:11.323Z,5.18
2018-12-24T05:42:41.282Z,5.15
2018-12-24T05:45:11.099Z,5.11
2018-12-24T05:47:40.947Z,5.13
2018-12-24T05:50:10.859Z,5.12
2018-12-24T05:52:40.818Z,5.03
2018-12-24T05:55:10.686Z,5.04
2018-12-24T05:57:40.536Z,5.00
2018-12-24T06:00:10.449Z,4.94
2018-12-24T06:02:40.393Z,4.93
2018-12-24T06:05:10.328Z,4.96
2018-12-24T06:07:40.175Z,4.87
2018-12-24T06:10:10.208Z,4.84
2018-12-24T06:12:40.027Z,4.81
2018-12-24T06:18:18.833Z,4.92
2018-12-24T06:20:48.368Z,4.98
2018-12-24T06:25:52.452Z,4.95
2018-12-24T06:28:21.900Z,5.09
2018-12-24T06:30:51.446Z,5.11
2018-12-24T06:33:20.985Z,5.05
2018-12-24T06:35:50.382Z,5.25
2018-12-24T06:38:19.814Z,5.27
2018-12-24T06:40:49.343Z,5.30
2018-12-24T06:43:18.825Z,5.38
2018-12-24T06:45:48.258Z,5.49
2018-12-24T06:51:25.123Z,5.57
2018-12-24T06:53:54.626Z,5.82
2018-12-24T06:56:24.078Z,5.73
2018-12-24T06:58:53.582Z,5.78
2018-12-24T07:01:23.030Z,6.00
2018-12-24T07:03:52.430Z,6.04
2018-12-24T07:06:21.961Z,6.24
2018-12-24T07:08:51.513Z,6.37
2018-12-24T07:11:20.910Z,6.40
2018-12-24T07:13:50.295Z,6.38
2018-12-24T07:16:19.832Z,6.55
2018-12-24T07:18:49.324Z,6.69
2018-12-24T07:21:18.771Z,6.77
2018-12-24T07:23:48.152Z,6.86
2018-12-24T07:26:17.725Z,7.02
2018-12-24T07:28:47.299Z,7.16
2018-12-24T07:31:17.891Z,7.27
2018-12-24T07:33:47.881Z,7.43
2018-12-24T07:36:17.544Z,7.58
2018-12-24T07:38:46.924Z,7.49
2018-12-24T07:41:16.458Z,7.59
2018-12-24T07:43:45.956Z,7.57
2018-12-24T07:46:15.402Z,7.39
2018-12-24T07:48:44.806Z,7.62
2018-12-24T07:51:14.344Z,7.68
2018-12-24T07:53:43.873Z,7.60
2018-12-24T07:56:13.266Z,7.68
2018-12-24T07:58:42.667Z,7.84
2018-12-24T08:01:12.200Z,7.96
2018-12-24T08:03:41.694Z,8.07
2018-12-24T08:06:11.142Z,8.22
2018-12-24T08:08:42.051Z,8.43
2018-12-24T08:11:11.595Z,8.69
2018-12-24T08:13:41.148Z,8.82
2018-12-24T08:16:10.593Z,9.14
2018-12-24T08:18:40.086Z,9.34
2018-12-24T08:21:09.484Z,9.50
2018-12-24T08:23:38.928Z,9.63
2018-12-24T08:26:08.447Z,9.97
2018-12-24T08:28:37.944Z,10.18
2018-12-24T08:31:07.383Z,10.53
2018-12-24T08:33:36.779Z,10.70
2018-12-24T08:36:06.336Z,10.96
2018-12-24T08:38:35.830Z,11.29
2018-12-24T08:41:05.231Z,11.32
2018-12-24T08:43:34.739Z,11.45
2018-12-24T08:46:04.262Z,11.67
2018-12-24T08:48:33.796Z,11.84
2018-12-24T08:51:03.229Z,11.82
2018-12-24T08:53:32.615Z,11.98
2018-12-24T08:56:02.097Z,12.15
2018-12-24T08:58:31.640Z,12.28
2018-12-24T09:01:19.923Z,12.38
2018-12-24T09:03:49.362Z,12.26
2018-12-24T09:06:18.904Z,12.17
2018-12-24T09:08:48.388Z,12.00
2018-12-24T09:11:17.835Z,12.17
2018-12-24T09:13:47.240Z,12.30
2018-12-24T09:16:16.782Z,12.33
2018-12-24T09:18:46.310Z,12.39
2018-12-24T09:21:15.755Z,12.42
2018-12-24T09:23:45.207Z,12.29
2018-12-24T09:26:14.714Z,12.29
2018-12-24T09:28:44.261Z,12.23
2018-12-24T09:31:14.085Z,12.32
2018-12-24T09:33:43.518Z,12.38
2018-12-24T09:36:13.070Z,12.31
2018-12-24T09:38:42.517Z,12.32
2018-12-24T09:41:12.138Z,12.40
2018-12-24T09:43:41.624Z,12.46
2018-12-24T09:46:11.058Z,12.53
2018-12-24T09:48:40.460Z,12.58
2018-12-24T09:51:09.995Z,12.75
2018-12-24T09:53:39.511Z,12.91
2018-12-24T09:56:12.339Z,13.14
2018-12-24T09:58:40.073Z,13.55
2018-12-24T10:01:09.610Z,13.70
2018-12-24T10:03:48.791Z,13.77
2018-12-24T10:06:38.369Z,13.70
2018-12-24T10:09:11.318Z,13.50
2018-12-24T10:11:40.865Z,13.23
2018-12-24T10:14:10.372Z,12.97
2018-12-24T10:16:39.770Z,13.01
2018-12-24T10:19:09.304Z,12.92
2018-12-24T10:21:38.708Z,12.77
2018-12-24T10:24:08.144Z,13.00
2018-12-24T10:26:37.677Z,13.14
2018-12-24T10:29:07.222Z,13.07
2018-12-24T10:31:36.632Z,13.15
2018-12-24T10:34:06.041Z,13.16
2018-12-24T10:36:35.601Z,13.15
2018-12-24T10:42:19.854Z,13.37
2018-12-24T10:44:49.264Z,13.15
2018-12-24T10:47:18.810Z,13.09
2018-12-24T10:49:48.288Z,13.21
2018-12-24T10:52:17.736Z,13.17
2018-12-24T10:54:47.128Z,13.11
2018-12-24T10:57:16.680Z,12.93
2018-12-24T10:59:46.086Z,12.43
2018-12-24T11:02:15.630Z,12.33
2018-12-24T11:04:45.132Z,12.24
2018-12-24T11:07:14.562Z,12.18
2018-12-24T11:09:44.039Z,12.12
2018-12-24T11:12:13.585Z,12.18
2018-12-24T11:14:43.077Z,12.15
2018-12-24T11:17:12.519Z,12.04
2018-12-24T11:19:41.912Z,12.17
2018-12-24T11:22:11.409Z,12.17
2018-12-24T11:24:40.946Z,12.09
2018-12-24T11:27:10.472Z,11.83
2018-12-24T11:29:39.890Z,11.70
2018-12-24T11:32:09.440Z,11.71
2018-12-24T11:34:38.943Z,11.69
2018-12-24T11:37:10.352Z,12.17
2018-12-24T11:39:39.656Z,13.12
2018-12-24T11:42:09.088Z,14.03
2018-12-24T11:44:38.541Z,14.75
2018-12-24T11:47:08.042Z,15.12
2018-12-24T11:49:37.584Z,15.27
2018-12-24T11:52:07.480Z,15.79
2018-12-24T11:54:36.902Z,16.03
2018-12-24T11:57:06.401Z,16.15
2018-12-24T11:59:35.943Z,16.57
2018-12-24T12:02:09.882Z,17.05
2018-12-24T12:04:36.563Z,17.32
2018-12-24T12:07:06.041Z,17.67
2018-12-24T12:09:54.491Z,17.66
2018-12-24T12:12:23.959Z,18.12
2018-12-24T12:14:53.350Z,17.73
2018-12-24T12:17:22.888Z,17.64
2018-12-24T12:19:52.285Z,17.44
2018-12-24T12:22:21.833Z,17.24
2018-12-24T12:24:51.321Z,16.99
2018-12-24T12:27:20.749Z,16.77
2018-12-24T12:29:50.142Z,16.74
2018-12-24T12:32:19.683Z,16.61
2018-12-24T12:34:49.186Z,16.28
2018-12-24T12:37:18.641Z,16.18
2018-12-24T12:39:48.025Z,15.91
2018-12-24T12:42:17.815Z,15.09
2018-12-24T12:44:47.325Z,15.21
2018-12-24T12:47:16.782Z,14.86
2018-12-24T12:49:46.227Z,14.58
2018-12-24T12:52:15.805Z,14.43
2018-12-24T12:54:45.348Z,14.43
2018-12-24T12:57:14.735Z,14.30
2018-12-24T12:59:44.282Z,14.26
2018-12-24T13:02:13.682Z,14.23
2018-12-24T13:04:43.113Z,14.10
2018-12-24T13:07:12.615Z,13.76
2018-12-24T13:09:42.155Z,13.20
2018-12-24T13:12:11.564Z,12.68
2018-12-24T13:14:40.971Z,11.78
2018-12-24T13:17:10.462Z,11.21
2018-12-24T13:19:40.051Z,10.97
2018-12-24T13:22:09.446Z,10.98
2018-12-24T13:24:38.885Z,11.09
2018-12-24T13:27:08.423Z,11.07
2018-12-24T13:29:37.940Z,11.18
2018-12-24T13:32:07.375Z,11.21
2018-12-24T13:34:36.768Z,11.17
2018-12-24T13:37:06.310Z,11.10
2018-12-24T13:39:35.714Z,11.10
2018-12-24T13:42:05.245Z,11.18
2018-12-24T13:44:34.784Z,11.15
2018-12-24T13:49:52.592Z,10.88
2018-12-24T13:52:22.119Z,10.72
2018-12-24T13:54:51.668Z,10.59
2018-12-24T13:57:21.068Z,10.58
2018-12-24T13:59:50.449Z,10.48
2018-12-24T14:02:19.997Z,10.30
2018-12-24T14:04:49.486Z,10.17
2018-12-24T14:07:18.925Z,9.86
2018-12-24T14:09:48.320Z,9.67
2018-12-24T14:12:17.854Z,9.61
2018-12-24T14:14:47.385Z,9.62
2018-12-24T14:17:18.889Z,9.61
2018-12-24T14:19:48.287Z,9.66
2018-12-24T14:22:17.817Z,9.58
2018-12-24T14:24:47.313Z,9.41
2018-12-24T14:27:16.754Z,9.30
2018-12-24T14:29:46.351Z,9.29
2018-12-24T14:32:15.993Z,9.33
2018-12-24T14:35:04.456Z,9.41
2018-12-24T14:37:33.973Z,9.50
2018-12-24T14:40:06.907Z,9.40
2018-12-24T14:42:36.422Z,9.46
2018-12-24T14:45:06.395Z,9.53
2018-12-24T14:47:35.844Z,9.42
2018-12-24T14:50:05.528Z,9.29
2018-12-24T14:52:35.055Z,9.16
2018-12-24T15:12:20.472Z,9.09
2018-12-24T15:14:50.140Z,9.12
2018-12-24T15:17:19.954Z,8.94
2018-12-24T15:19:49.560Z,8.82
2018-12-24T15:22:19.323Z,8.59
2018-12-24T15:24:49.167Z,8.61
2018-12-24T15:27:18.986Z,8.56
2018-12-24T15:29:48.761Z,8.58
2018-12-24T15:32:19.811Z,8.69
2018-12-24T15:34:49.630Z,8.56
2018-12-24T15:37:19.271Z,8.43
2018-12-24T15:39:48.882Z,8.45
2018-12-24T15:42:18.585Z,8.49
2018-12-24T15:44:48.325Z,8.53
2018-12-24T15:47:18.061Z,8.59
2018-12-24T15:49:47.695Z,8.78
2018-12-24T15:52:17.525Z,8.80
2018-12-24T15:54:46.964Z,8.86
2018-12-24T15:57:16.792Z,8.84
2018-12-24T15:59:46.971Z,8.82
2018-12-24T16:02:16.715Z,8.99
2018-12-24T16:04:46.105Z,8.89
2018-12-24T16:07:15.812Z,8.79
2018-12-24T16:09:45.370Z,8.73
2018-12-24T16:12:15.184Z,8.82
2018-12-24T16:14:44.820Z,8.70
2018-12-24T16:17:14.902Z,8.55
2018-12-24T16:19:44.629Z,8.61
2018-12-24T16:22:14.426Z,8.48
2018-12-24T16:24:43.911Z,8.26
2018-12-24T16:27:13.785Z,8.12
2018-12-24T16:29:43.539Z,8.11
2018-12-24T16:32:14.660Z,8.13
2018-12-24T16:34:44.420Z,8.02
2018-12-24T16:37:17.538Z,8.08
2018-12-24T16:39:47.494Z,8.18
2018-12-24T16:42:17.448Z,8.43
2018-12-24T16:44:47.250Z,8.50
2018-12-24T16:47:17.022Z,8.51
2018-12-24T16:49:46.818Z,8.45
2018-12-24T16:52:16.686Z,8.28
2018-12-24T16:54:46.382Z,8.30
2018-12-24T16:57:15.999Z,8.37
2018-12-24T16:59:45.679Z,8.47
2018-12-24T17:02:15.319Z,8.44
2018-12-24T17:04:44.918Z,8.43
2018-12-24T17:07:14.663Z,8.41
2018-12-24T17:09:44.303Z,8.37
2018-12-24T17:12:14.101Z,8.41
2018-12-24T17:14:43.768Z,8.42
2018-12-24T17:17:13.719Z,7.97
2018-12-24T17:19:43.454Z,7.42
2018-12-24T17:22:13.202Z,7.06
2018-12-24T17:24:43.155Z,6.83
2018-12-24T17:27:12.902Z,6.65
2018-12-24T17:29:42.490Z,6.52
2018-12-24T17:32:12.302Z,6.47
2018-12-24T17:34:41.725Z,6.39
2018-12-24T17:37:12.399Z,6.33
2018-12-24T17:39:43.310Z,6.29
2018-12-24T17:42:13.130Z,6.31
2018-12-24T17:44:42.746Z,6.51
2018-12-24T17:47:16.373Z,6.66
2018-12-24T17:49:45.007Z,6.85
2018-12-24T17:52:14.778Z,7.03
2018-12-24T17:54:44.534Z,7.20
2018-12-24T17:57:14.970Z,7.34
2018-12-24T17:59:45.123Z,7.46
2018-12-24T18:02:14.858Z,7.60
2018-12-24T18:04:44.551Z,7.71
2018-12-24T18:07:14.310Z,7.84
2018-12-24T18:09:44.163Z,7.92
2018-12-24T18:12:13.935Z,8.08
2018-12-24T18:14:43.346Z,8.17
2018-12-24T18:17:13.025Z,8.20
2018-12-24T18:19:42.858Z,8.17
2018-12-24T18:22:12.603Z,8.19
2018-12-24T18:24:42.046Z,8.22
2018-12-24T18:27:11.572Z,8.29
2018-12-24T18:29:41.101Z,8.21
2018-12-24T18:32:10.687Z,8.24
2018-12-24T18:34:40.504Z,8.24
2018-12-24T18:37:10.375Z,8.28
2018-12-24T18:39:39.804Z,8.27
2018-12-24T18:42:09.413Z,8.26
2018-12-24T18:44:39.019Z,8.27
2018-12-24T18:47:08.850Z,8.28
2018-12-24T18:49:38.437Z,8.33
2018-12-24T18:52:08.334Z,8.36
2018-12-24T18:54:37.988Z,8.37
2018-12-24T18:57:07.649Z,8.33
2018-12-24T18:59:37.267Z,8.29
2018-12-24T19:02:07.038Z,8.26
2018-12-24T19:04:38.666Z,8.29
2018-12-24T19:07:08.167Z,8.19
2018-12-24T19:09:37.849Z,8.24
2018-12-24T19:12:07.618Z,8.25
2018-12-24T19:14:37.289Z,8.27
2018-12-24T19:17:06.837Z,8.30
2018-12-24T19:19:36.571Z,8.28
2018-12-24T19:22:06.396Z,8.31
2018-12-24T19:24:35.932Z,8.28
2018-12-24T19:27:05.543Z,8.28
2018-12-24T19:29:38.206Z,8.29
2018-12-24T19:32:08.120Z,8.34
2018-12-24T19:34:37.844Z,8.31
2018-12-24T19:37:07.668Z,8.32
2018-12-24T19:39:37.488Z,8.39
2018-12-24T19:42:07.551Z,8.33
2018-12-24T19:44:37.719Z,8.37
2018-12-24T19:47:07.581Z,8.34
2018-12-24T19:49:37.143Z,8.33
2018-12-24T19:52:06.860Z,8.29
2018-12-24T19:54:36.454Z,8.27
2018-12-24T19:57:06.358Z,8.29
2018-12-24T19:59:36.083Z,8.25
2018-12-24T20:02:05.772Z,8.28
2018-12-24T20:04:35.613Z,8.28
2018-12-24T20:07:05.386Z,8.29
2018-12-24T20:09:35.017Z,8.31
2018-12-24T20:12:06.339Z,8.27
2018-12-24T20:14:36.193Z,8.24
2018-12-24T20:17:05.881Z,8.35
2018-12-24T20:19:35.696Z,8.27
2018-12-24T20:22:05.343Z,8.29
2018-12-24T20:24:35.282Z,8.33
2018-12-24T20:27:04.908Z,8.32
2018-12-24T20:29:34.624Z,8.28
2018-12-24T20:32:04.562Z,8.25
2018-12-24T20:34:34.089Z,8.27
2018-12-24T20:37:03.540Z,8.19
2018-12-24T20:39:34.179Z,8.17
2018-12-24T20:42:05.317Z,8.21
2018-12-24T20:44:35.361Z,8.23
2018-12-24T20:47:05.541Z,8.19
2018-12-24T20:49:36.424Z,8.20
2018-12-24T20:52:06.164Z,8.23
2018-12-24T20:54:35.616Z,8.14
2018-12-24T20:57:05.051Z,8.11
2018-12-24T20:59:34.709Z,8.07
2018-12-24T21:02:04.174Z,8.06
2018-12-24T21:04:33.685Z,8.04
2018-12-24T21:07:03.205Z,8.02
2018-12-24T21:09:32.848Z,8.02
2018-12-24T21:12:02.571Z,8.05
2018-12-24T21:14:32.393Z,8.06
2018-12-24T21:17:01.923Z,8.03
2018-12-24T21:19:31.517Z,8.05
2018-12-24T21:22:01.159Z,8.02
2018-12-24T21:24:30.693Z,7.95
2018-12-24T21:27:00.435Z,7.93
2018-12-24T21:29:30.027Z,7.92
2018-12-24T21:31:59.776Z,7.93
2018-12-24T21:34:29.297Z,7.90
2018-12-24T21:36:59.077Z,7.88
2018-12-24T21:39:28.805Z,7.88
2018-12-24T21:41:58.248Z,7.87
2018-12-24T21:44:28.072Z,7.85
2018-12-24T21:46:57.865Z,7.81
2018-12-24T21:49:27.581Z,7.75
2018-12-24T21:51:57.294Z,7.77
2018-12-24T21:54:26.806Z,7.77
2018-12-24T21:56:56.397Z,7.72
2018-12-24T21:59:26.169Z,7.74
2018-12-24T22:01:55.918Z,7.72
2018-12-24T22:04:25.516Z,7.80
2018-12-24T22:06:55.145Z,7.84
2018-12-24T22:09:24.677Z,7.80
2018-12-24T22:11:54.199Z,7.75
2018-12-24T22:14:23.846Z,7.71
2018-12-24T22:16:53.447Z,7.70
2018-12-24T22:19:23.226Z,7.69
2018-12-24T22:21:52.964Z,7.63
2018-12-24T22:24:22.720Z,7.59
2018-12-24T22:26:52.285Z,7.55
2018-12-24T22:29:22.147Z,7.49
2018-12-24T22:31:51.845Z,7.42
2018-12-24T22:34:21.567Z,7.41
2018-12-24T22:36:51.365Z,7.38
2018-12-24T22:39:20.915Z,7.39
2018-12-24T22:41:50.667Z,7.37
2018-12-24T22:44:20.144Z,7.35
2018-12-24T22:46:49.607Z,7.35
2018-12-24T22:49:19.001Z,7.30
2018-12-24T22:51:48.604Z,7.33
2018-12-24T22:54:18.235Z,7.34
2018-12-24T22:56:48.055Z,7.33
2018-12-24T22:59:17.826Z,7.35
2018-12-24T23:01:47.510Z,7.33
2018-12-24T23:04:16.976Z,7.32
2018-12-24T23:06:46.759Z,7.32
2018-12-24T23:09:16.404Z,7.33
2018-12-24T23:11:45.842Z,7.31
2018-12-24T23:14:15.366Z,7.34
2018-12-24T23:16:44.868Z,7.30
2018-12-24T23:19:14.491Z,7.23
2018-12-24T23:21:43.944Z,7.21
2018-12-24T23:24:13.629Z,7.24
2018-12-24T23:26:43.351Z,7.17
2018-12-24T23:29:12.909Z,7.18
2018-12-24T23:31:42.582Z,7.16
2018-12-24T23:34:12.438Z,7.17
2018-12-24T23:36:42.202Z,7.19
2018-12-24T23:39:11.830Z,7.23
2018-12-24T23:41:41.458Z,7.21
2018-12-24T23:44:11.350Z,7.17
2018-12-24T23:46:40.846Z,7.19
2018-12-24T23:49:10.274Z,7.18
2018-12-24T23:51:39.941Z,7.13
2018-12-24T23:54:09.530Z,7.10
2018-12-24T23:56:39.259Z,7.18
2018-12-24T23:59:08.880Z,7.12
